sensor_id;sensor_type;location;lat;lon;timestamp;P1;durP1;ratioP1;P2;durP2;ratioP2
43118;SDS011;28729;49.838;8.650;2023-11-19T00:02:41;7.65;;;3.38;;
43118;SDS011;28729;49.838;8.650;2023-11-19T00:06:44;4.60;;;2.85;;
43118;SDS011;28729;49.838;8.650;2023-11-19T00:14:48;5.18;;;2.58;;
43118;SDS011;28729;49.838;8.650;2023-11-19T00:18:52;4.43;;;2.40;;
43118;SDS011;28729;49.838;8.650;2023-11-19T00:22:54;4.13;;;2.00;;
43118;SDS011;28729;49.838;8.650;2023-11-19T00:27:03;5.00;;;2.47;;
43118;SDS011;28729;49.838;8.650;2023-11-19T00:31:05;4.45;;;2.17;;
43118;SDS011;28729;49.838;8.650;2023-11-19T00:35:08;5.32;;;2.47;;
43118;SDS011;28729;49.838;8.650;2023-11-19T00:39:13;5.75;;;2.58;;
43118;SDS011;28729;49.838;8.650;2023-11-19T00:43:16;4.57;;;2.50;;
43118;SDS011;28729;49.838;8.650;2023-11-19T00:47:18;5.50;;;2.25;;
43118;SDS011;28729;49.838;8.650;2023-11-19T00:51:22;4.57;;;2.72;;
43118;SDS011;28729;49.838;8.650;2023-11-19T00:55:24;5.78;;;2.55;;
43118;SDS011;28729;49.838;8.650;2023-11-19T00:59:26;6.82;;;2.35;;
43118;SDS011;28729;49.838;8.650;2023-11-19T01:03:30;4.78;;;2.28;;
43118;SDS011;28729;49.838;8.650;2023-11-19T01:07:34;3.72;;;2.10;;
43118;SDS011;28729;49.838;8.650;2023-11-19T01:15:39;3.90;;;2.22;;
43118;SDS011;28729;49.838;8.650;2023-11-19T01:19:44;4.60;;;1.98;;
43118;SDS011;28729;49.838;8.650;2023-11-19T01:23:45;3.28;;;1.75;;
43118;SDS011;28729;49.838;8.650;2023-11-19T01:27:47;3.25;;;1.95;;
43118;SDS011;28729;49.838;8.650;2023-11-19T01:31:50;3.42;;;1.67;;
43118;SDS011;28729;49.838;8.650;2023-11-19T01:35:55;3.95;;;1.92;;
43118;SDS011;28729;49.838;8.650;2023-11-19T01:40:00;4.38;;;1.88;;
43118;SDS011;28729;49.838;8.650;2023-11-19T01:44:05;4.05;;;2.00;;
43118;SDS011;28729;49.838;8.650;2023-11-19T01:48:07;3.40;;;1.40;;
43118;SDS011;28729;49.838;8.650;2023-11-19T01:52:13;4.30;;;1.70;;
43118;SDS011;28729;49.838;8.650;2023-11-19T01:56:15;2.47;;;1.27;;
43118;SDS011;28729;49.838;8.650;2023-11-19T02:00:18;5.28;;;1.00;;
43118;SDS011;28729;49.838;8.650;2023-11-19T02:04:21;2.17;;;1.20;;
43118;SDS011;28729;49.838;8.650;2023-11-19T02:08:26;2.88;;;1.05;;
43118;SDS011;28729;49.838;8.650;2023-11-19T02:12:28;2.97;;;0.93;;
43118;SDS011;28729;49.838;8.650;2023-11-19T02:16:30;2.47;;;1.07;;
43118;SDS011;28729;49.838;8.650;2023-11-19T02:20:32;1.33;;;0.80;;
43118;SDS011;28729;49.838;8.650;2023-11-19T02:24:34;1.90;;;1.10;;
43118;SDS011;28729;49.838;8.650;2023-11-19T02:28:36;1.50;;;0.90;;
43118;SDS011;28729;49.838;8.650;2023-11-19T02:32:42;2.28;;;1.05;;
43118;SDS011;28729;49.838;8.650;2023-11-19T02:36:44;1.65;;;0.90;;
43118;SDS011;28729;49.838;8.650;2023-11-19T02:40:48;4.18;;;1.63;;
43118;SDS011;28729;49.838;8.650;2023-11-19T02:44:51;0.98;;;0.60;;
43118;SDS011;28729;49.838;8.650;2023-11-19T02:48:53;1.13;;;0.63;;
43118;SDS011;28729;49.838;8.650;2023-11-19T02:52:55;1.25;;;0.90;;
43118;SDS011;28729;49.838;8.650;2023-11-19T02:56:58;2.38;;;1.30;;
43118;SDS011;28729;49.838;8.650;2023-11-19T03:01:03;1.83;;;0.90;;
43118;SDS011;28729;49.838;8.650;2023-11-19T03:05:14;2.08;;;1.00;;
43118;SDS011;28729;49.838;8.650;2023-11-19T03:09:18;1.48;;;0.77;;
43118;SDS011;28729;49.838;8.650;2023-11-19T03:13:21;1.25;;;0.63;;
43118;SDS011;28729;49.838;8.650;2023-11-19T03:17:23;0.95;;;0.55;;
43118;SDS011;28729;49.838;8.650;2023-11-19T03:21:27;1.52;;;0.95;;
43118;SDS011;28729;49.838;8.650;2023-11-19T03:25:34;1.25;;;0.80;;
43118;SDS011;28729;49.838;8.650;2023-11-19T03:29:42;1.90;;;1.00;;
43118;SDS011;28729;49.838;8.650;2023-11-19T03:33:44;1.92;;;1.15;;
43118;SDS011;28729;49.838;8.650;2023-11-19T03:37:50;3.80;;;1.33;;
43118;SDS011;28729;49.838;8.650;2023-11-19T03:41:54;2.28;;;1.27;;
43118;SDS011;28729;49.838;8.650;2023-11-19T03:45:58;2.53;;;1.35;;
43118;SDS011;28729;49.838;8.650;2023-11-19T03:50:01;2.35;;;1.27;;
43118;SDS011;28729;49.838;8.650;2023-11-19T03:54:04;2.05;;;1.20;;
43118;SDS011;28729;49.838;8.650;2023-11-19T03:58:08;3.55;;;1.50;;
43118;SDS011;28729;49.838;8.650;2023-11-19T04:02:10;2.05;;;1.08;;
43118;SDS011;28729;49.838;8.650;2023-11-19T04:06:11;2.40;;;1.27;;
43118;SDS011;28729;49.838;8.650;2023-11-19T04:10:13;2.47;;;1.27;;
43118;SDS011;28729;49.838;8.650;2023-11-19T04:14:18;2.95;;;1.52;;
43118;SDS011;28729;49.838;8.650;2023-11-19T04:18:21;2.58;;;1.50;;
43118;SDS011;28729;49.838;8.650;2023-11-19T04:22:23;2.92;;;1.33;;
43118;SDS011;28729;49.838;8.650;2023-11-19T04:26:25;2.90;;;1.42;;
43118;SDS011;28729;49.838;8.650;2023-11-19T04:30:30;3.00;;;1.52;;
43118;SDS011;28729;49.838;8.650;2023-11-19T04:34:34;3.70;;;2.13;;
43118;SDS011;28729;49.838;8.650;2023-11-19T04:38:36;5.32;;;2.33;;
43118;SDS011;28729;49.838;8.650;2023-11-19T04:42:40;4.72;;;2.72;;
43118;SDS011;28729;49.838;8.650;2023-11-19T04:46:48;3.85;;;2.08;;
43118;SDS011;28729;49.838;8.650;2023-11-19T04:50:50;4.37;;;2.13;;
43118;SDS011;28729;49.838;8.650;2023-11-19T04:54:55;5.90;;;2.80;;
43118;SDS011;28729;49.838;8.650;2023-11-19T04:58:57;4.38;;;2.53;;
43118;SDS011;28729;49.838;8.650;2023-11-19T05:02:58;6.85;;;2.80;;
43118;SDS011;28729;49.838;8.650;2023-11-19T05:07:00;6.40;;;3.00;;
43118;SDS011;28729;49.838;8.650;2023-11-19T05:11:02;5.30;;;2.88;;
43118;SDS011;28729;49.838;8.650;2023-11-19T05:15:09;7.45;;;3.17;;
43118;SDS011;28729;49.838;8.650;2023-11-19T05:19:11;5.80;;;2.90;;
43118;SDS011;28729;49.838;8.650;2023-11-19T05:23:13;6.00;;;3.30;;
43118;SDS011;28729;49.838;8.650;2023-11-19T05:27:17;4.82;;;3.05;;
43118;SDS011;28729;49.838;8.650;2023-11-19T05:31:19;7.45;;;3.47;;
43118;SDS011;28729;49.838;8.650;2023-11-19T05:35:21;3.90;;;2.33;;
43118;SDS011;28729;49.838;8.650;2023-11-19T05:39:23;6.38;;;3.13;;
43118;SDS011;28729;49.838;8.650;2023-11-19T05:43:26;5.38;;;3.15;;
43118;SDS011;28729;49.838;8.650;2023-11-19T05:47:27;6.65;;;3.08;;
43118;SDS011;28729;49.838;8.650;2023-11-19T05:51:31;6.53;;;2.42;;
43118;SDS011;28729;49.838;8.650;2023-11-19T05:55:36;3.85;;;2.30;;
43118;SDS011;28729;49.838;8.650;2023-11-19T05:59:46;5.32;;;2.60;;
43118;SDS011;28729;49.838;8.650;2023-11-19T06:03:48;5.80;;;2.40;;
43118;SDS011;28729;49.838;8.650;2023-11-19T06:07:52;6.05;;;2.28;;
43118;SDS011;28729;49.838;8.650;2023-11-19T06:11:53;5.90;;;2.43;;
43118;SDS011;28729;49.838;8.650;2023-11-19T06:19:58;5.55;;;2.80;;
43118;SDS011;28729;49.838;8.650;2023-11-19T06:24:00;9.32;;;3.25;;
43118;SDS011;28729;49.838;8.650;2023-11-19T06:28:02;7.25;;;3.28;;
43118;SDS011;28729;49.838;8.650;2023-11-19T06:32:04;10.98;;;4.10;;
43118;SDS011;28729;49.838;8.650;2023-11-19T06:36:10;10.07;;;3.47;;
43118;SDS011;28729;49.838;8.650;2023-11-19T06:40:12;6.88;;;3.50;;
43118;SDS011;28729;49.838;8.650;2023-11-19T06:44:14;7.30;;;3.67;;
43118;SDS011;28729;49.838;8.650;2023-11-19T06:48:16;6.97;;;4.15;;
43118;SDS011;28729;49.838;8.650;2023-11-19T06:52:17;4.95;;;3.05;;
43118;SDS011;28729;49.838;8.650;2023-11-19T07:00:23;10.20;;;3.15;;
43118;SDS011;28729;49.838;8.650;2023-11-19T07:04:26;7.50;;;3.90;;
43118;SDS011;28729;49.838;8.650;2023-11-19T07:08:28;9.37;;;3.63;;
43118;SDS011;28729;49.838;8.650;2023-11-19T07:12:29;10.10;;;3.55;;
43118;SDS011;28729;49.838;8.650;2023-11-19T07:16:35;8.63;;;3.90;;
43118;SDS011;28729;49.838;8.650;2023-11-19T07:20:40;6.78;;;3.20;;
43118;SDS011;28729;49.838;8.650;2023-11-19T07:24:42;9.97;;;2.73;;
43118;SDS011;28729;49.838;8.650;2023-11-19T07:28:44;4.97;;;2.57;;
43118;SDS011;28729;49.838;8.650;2023-11-19T07:32:46;4.40;;;2.30;;
43118;SDS011;28729;49.838;8.650;2023-11-19T07:36:48;4.70;;;2.05;;
43118;SDS011;28729;49.838;8.650;2023-11-19T07:40:50;4.18;;;2.15;;
43118;SDS011;28729;49.838;8.650;2023-11-19T07:44:54;15.50;;;2.38;;
43118;SDS011;28729;49.838;8.650;2023-11-19T07:48:57;5.25;;;1.80;;
43118;SDS011;28729;49.838;8.650;2023-11-19T07:52:59;5.28;;;3.33;;
43118;SDS011;28729;49.838;8.650;2023-11-19T07:57:01;4.40;;;1.73;;
43118;SDS011;28729;49.838;8.650;2023-11-19T08:01:04;3.17;;;1.70;;
43118;SDS011;28729;49.838;8.650;2023-11-19T08:05:06;6.65;;;2.20;;
43118;SDS011;28729;49.838;8.650;2023-11-19T08:09:08;6.03;;;2.65;;
43118;SDS011;28729;49.838;8.650;2023-11-19T08:13:15;9.18;;;2.88;;
43118;SDS011;28729;49.838;8.650;2023-11-19T08:17:21;3.60;;;2.22;;
43118;SDS011;28729;49.838;8.650;2023-11-19T08:21:24;4.35;;;1.95;;
43118;SDS011;28729;49.838;8.650;2023-11-19T08:25:29;7.13;;;2.40;;
43118;SDS011;28729;49.838;8.650;2023-11-19T08:29:31;3.63;;;2.10;;
43118;SDS011;28729;49.838;8.650;2023-11-19T08:33:34;3.35;;;1.52;;
43118;SDS011;28729;49.838;8.650;2023-11-19T08:37:36;5.00;;;1.77;;
43118;SDS011;28729;49.838;8.650;2023-11-19T08:45:41;4.30;;;1.77;;
43118;SDS011;28729;49.838;8.650;2023-11-19T08:49:43;7.97;;;2.42;;
43118;SDS011;28729;49.838;8.650;2023-11-19T08:53:46;5.97;;;1.92;;
43118;SDS011;28729;49.838;8.650;2023-11-19T08:57:48;7.43;;;2.13;;
43118;SDS011;28729;49.838;8.650;2023-11-19T09:01:50;4.40;;;1.92;;
43118;SDS011;28729;49.838;8.650;2023-11-19T09:05:52;6.07;;;2.35;;
43118;SDS011;28729;49.838;8.650;2023-11-19T09:09:54;7.72;;;2.58;;
43118;SDS011;28729;49.838;8.650;2023-11-19T09:13:56;3.10;;;1.53;;
43118;SDS011;28729;49.838;8.650;2023-11-19T09:18:00;5.55;;;1.95;;
43118;SDS011;28729;49.838;8.650;2023-11-19T09:22:02;5.00;;;1.50;;
43118;SDS011;28729;49.838;8.650;2023-11-19T09:26:05;4.75;;;1.77;;
43118;SDS011;28729;49.838;8.650;2023-11-19T09:30:07;5.57;;;1.95;;
43118;SDS011;28729;49.838;8.650;2023-11-19T09:34:09;4.70;;;1.90;;
43118;SDS011;28729;49.838;8.650;2023-11-19T09:38:11;2.60;;;1.63;;
43118;SDS011;28729;49.838;8.650;2023-11-19T09:42:14;6.73;;;2.20;;
43118;SDS011;28729;49.838;8.650;2023-11-19T09:46:16;8.25;;;2.80;;
43118;SDS011;28729;49.838;8.650;2023-11-19T09:50:18;5.00;;;2.97;;
43118;SDS011;28729;49.838;8.650;2023-11-19T09:54:21;4.90;;;2.60;;
43118;SDS011;28729;49.838;8.650;2023-11-19T09:58:23;3.97;;;2.78;;
43118;SDS011;28729;49.838;8.650;2023-11-19T10:02:25;4.10;;;2.50;;
43118;SDS011;28729;49.838;8.650;2023-11-19T10:06:32;5.13;;;2.58;;
43118;SDS011;28729;49.838;8.650;2023-11-19T10:10:35;4.88;;;2.40;;
43118;SDS011;28729;49.838;8.650;2023-11-19T10:14:37;5.93;;;2.47;;
43118;SDS011;28729;49.838;8.650;2023-11-19T10:18:47;5.38;;;2.72;;
43118;SDS011;28729;49.838;8.650;2023-11-19T10:22:55;7.07;;;2.42;;
43118;SDS011;28729;49.838;8.650;2023-11-19T10:26:57;8.15;;;2.47;;
43118;SDS011;28729;49.838;8.650;2023-11-19T10:30:59;5.33;;;2.77;;
43118;SDS011;28729;49.838;8.650;2023-11-19T10:35:05;4.60;;;2.75;;
43118;SDS011;28729;49.838;8.650;2023-11-19T10:39:10;5.78;;;3.25;;
43118;SDS011;28729;49.838;8.650;2023-11-19T10:43:12;5.90;;;2.38;;
43118;SDS011;28729;49.838;8.650;2023-11-19T10:47:15;5.07;;;1.88;;
43118;SDS011;28729;49.838;8.650;2023-11-19T10:51:20;7.07;;;1.63;;
43118;SDS011;28729;49.838;8.650;2023-11-19T10:55:25;3.22;;;1.60;;
43118;SDS011;28729;49.838;8.650;2023-11-19T10:59:29;3.08;;;1.48;;
43118;SDS011;28729;49.838;8.650;2023-11-19T11:03:37;3.00;;;1.10;;
43118;SDS011;28729;49.838;8.650;2023-11-19T11:07:41;2.78;;;0.95;;
43118;SDS011;28729;49.838;8.650;2023-11-19T11:11:47;2.97;;;1.20;;
43118;SDS011;28729;49.838;8.650;2023-11-19T11:15:49;3.97;;;1.70;;
43118;SDS011;28729;49.838;8.650;2023-11-19T11:19:52;5.35;;;1.20;;
43118;SDS011;28729;49.838;8.650;2023-11-19T11:41:23;6.93;;;1.33;;
43118;SDS011;28729;49.838;8.650;2023-11-19T11:45:39;5.32;;;1.23;;
43118;SDS011;28729;49.838;8.650;2023-11-19T11:49:45;2.70;;;1.35;;
43118;SDS011;28729;49.838;8.650;2023-11-19T11:53:49;4.65;;;2.38;;
43118;SDS011;28729;49.838;8.650;2023-11-19T11:57:53;5.80;;;1.55;;
43118;SDS011;28729;49.838;8.650;2023-11-19T12:01:58;4.55;;;1.15;;
43118;SDS011;28729;49.838;8.650;2023-11-19T12:06:01;5.53;;;1.92;;
43118;SDS011;28729;49.838;8.650;2023-11-19T12:10:08;5.28;;;1.08;;
43118;SDS011;28729;49.838;8.650;2023-11-19T12:14:13;4.93;;;1.20;;
43118;SDS011;28729;49.838;8.650;2023-11-19T12:18:14;4.97;;;1.93;;
43118;SDS011;28729;49.838;8.650;2023-11-19T12:22:21;5.15;;;1.58;;
43118;SDS011;28729;49.838;8.650;2023-11-19T12:26:35;4.60;;;0.90;;
43118;SDS011;28729;49.838;8.650;2023-11-19T12:30:39;4.97;;;0.90;;
43118;SDS011;28729;49.838;8.650;2023-11-19T12:34:41;4.72;;;1.23;;
43118;SDS011;28729;49.838;8.650;2023-11-19T12:38:43;5.30;;;1.10;;
43118;SDS011;28729;49.838;8.650;2023-11-19T12:42:47;6.75;;;1.15;;
43118;SDS011;28729;49.838;8.650;2023-11-19T12:47:00;5.93;;;1.30;;
43118;SDS011;28729;49.838;8.650;2023-11-19T12:51:07;4.82;;;1.23;;
43118;SDS011;28729;49.838;8.650;2023-11-19T12:55:26;5.20;;;1.00;;
43118;SDS011;28729;49.838;8.650;2023-11-19T12:59:32;3.08;;;0.82;;
43118;SDS011;28729;49.838;8.650;2023-11-19T13:03:35;6.57;;;0.90;;
43118;SDS011;28729;49.838;8.650;2023-11-19T13:07:42;6.32;;;1.02;;
43118;SDS011;28729;49.838;8.650;2023-11-19T13:11:45;8.32;;;1.05;;
43118;SDS011;28729;49.838;8.650;2023-11-19T13:15:48;7.18;;;0.77;;
43118;SDS011;28729;49.838;8.650;2023-11-19T13:19:51;4.90;;;1.00;;
43118;SDS011;28729;49.838;8.650;2023-11-19T13:23:54;4.82;;;1.17;;
43118;SDS011;28729;49.838;8.650;2023-11-19T13:27:56;4.37;;;1.00;;
43118;SDS011;28729;49.838;8.650;2023-11-19T13:31:58;9.02;;;1.60;;
43118;SDS011;28729;49.838;8.650;2023-11-19T13:36:01;12.93;;;1.95;;
43118;SDS011;28729;49.838;8.650;2023-11-19T13:40:07;3.60;;;1.02;;
43118;SDS011;28729;49.838;8.650;2023-11-19T13:44:12;6.55;;;1.40;;
43118;SDS011;28729;49.838;8.650;2023-11-19T13:48:14;6.07;;;1.30;;
43118;SDS011;28729;49.838;8.650;2023-11-19T13:52:17;10.07;;;1.35;;
43118;SDS011;28729;49.838;8.650;2023-11-19T13:56:19;6.93;;;1.27;;
43118;SDS011;28729;49.838;8.650;2023-11-19T14:00:21;5.17;;;1.20;;
43118;SDS011;28729;49.838;8.650;2023-11-19T14:04:25;7.75;;;1.50;;
43118;SDS011;28729;49.838;8.650;2023-11-19T14:08:28;11.33;;;1.07;;
43118;SDS011;28729;49.838;8.650;2023-11-19T14:16:32;5.30;;;1.10;;
43118;SDS011;28729;49.838;8.650;2023-11-19T14:20:36;9.43;;;1.40;;
43118;SDS011;28729;49.838;8.650;2023-11-19T14:24:44;5.93;;;1.15;;
43118;SDS011;28729;49.838;8.650;2023-11-19T14:28:46;4.13;;;0.88;;
43118;SDS011;28729;49.838;8.650;2023-11-19T14:32:52;4.00;;;1.10;;
43118;SDS011;28729;49.838;8.650;2023-11-19T14:36:55;9.02;;;1.20;;
43118;SDS011;28729;49.838;8.650;2023-11-19T14:40:59;4.70;;;1.10;;
43118;SDS011;28729;49.838;8.650;2023-11-19T14:45:01;4.80;;;0.97;;
43118;SDS011;28729;49.838;8.650;2023-11-19T14:49:04;6.00;;;1.08;;
43118;SDS011;28729;49.838;8.650;2023-11-19T14:53:05;4.15;;;1.20;;
43118;SDS011;28729;49.838;8.650;2023-11-19T14:57:07;6.17;;;1.23;;
43118;SDS011;28729;49.838;8.650;2023-11-19T15:01:13;3.50;;;0.90;;
43118;SDS011;28729;49.838;8.650;2023-11-19T15:05:16;5.60;;;1.30;;
43118;SDS011;28729;49.838;8.650;2023-11-19T15:09:18;5.40;;;1.03;;
43118;SDS011;28729;49.838;8.650;2023-11-19T15:13:23;6.90;;;1.27;;
43118;SDS011;28729;49.838;8.650;2023-11-19T15:17:24;6.00;;;1.30;;
43118;SDS011;28729;49.838;8.650;2023-11-19T15:21:29;3.45;;;1.35;;
43118;SDS011;28729;49.838;8.650;2023-11-19T15:30:16;3.47;;;1.13;;
43118;SDS011;28729;49.838;8.650;2023-11-19T15:34:18;5.77;;;1.20;;
43118;SDS011;28729;49.838;8.650;2023-11-19T15:38:22;9.13;;;1.48;;
43118;SDS011;28729;49.838;8.650;2023-11-19T15:42:25;4.78;;;1.20;;
43118;SDS011;28729;49.838;8.650;2023-11-19T15:46:27;5.10;;;1.20;;
43118;SDS011;28729;49.838;8.650;2023-11-19T15:50:29;5.50;;;1.13;;
43118;SDS011;28729;49.838;8.650;2023-11-19T15:54:31;4.60;;;0.80;;
43118;SDS011;28729;49.838;8.650;2023-11-19T15:58:35;2.72;;;0.90;;
43118;SDS011;28729;49.838;8.650;2023-11-19T16:02:38;3.50;;;1.52;;
43118;SDS011;28729;49.838;8.650;2023-11-19T16:06:41;4.80;;;1.48;;
43118;SDS011;28729;49.838;8.650;2023-11-19T16:10:43;7.73;;;1.10;;
43118;SDS011;28729;49.838;8.650;2023-11-19T16:14:45;6.38;;;1.73;;
43118;SDS011;28729;49.838;8.650;2023-11-19T16:18:48;6.57;;;2.38;;
43118;SDS011;28729;49.838;8.650;2023-11-19T16:22:50;4.63;;;1.50;;
43118;SDS011;28729;49.838;8.650;2023-11-19T16:26:52;8.38;;;1.48;;
43118;SDS011;28729;49.838;8.650;2023-11-19T16:30:54;4.72;;;1.55;;
43118;SDS011;28729;49.838;8.650;2023-11-19T16:34:56;6.57;;;1.30;;
43118;SDS011;28729;49.838;8.650;2023-11-19T16:38:59;3.33;;;1.35;;
43118;SDS011;28729;49.838;8.650;2023-11-19T16:43:05;5.03;;;1.45;;
43118;SDS011;28729;49.838;8.650;2023-11-19T16:47:07;7.30;;;1.77;;
43118;SDS011;28729;49.838;8.650;2023-11-19T16:51:13;7.75;;;1.88;;
43118;SDS011;28729;49.838;8.650;2023-11-19T16:55:18;6.78;;;1.75;;
43118;SDS011;28729;49.838;8.650;2023-11-19T16:59:21;5.05;;;1.73;;
43118;SDS011;28729;49.838;8.650;2023-11-19T17:03:31;6.90;;;2.00;;
43118;SDS011;28729;49.838;8.650;2023-11-19T17:07:34;8.40;;;2.10;;
43118;SDS011;28729;49.838;8.650;2023-11-19T17:11:36;8.20;;;2.23;;
43118;SDS011;28729;49.838;8.650;2023-11-19T17:15:41;11.07;;;2.45;;
43118;SDS011;28729;49.838;8.650;2023-11-19T17:19:47;8.88;;;2.03;;
43118;SDS011;28729;49.838;8.650;2023-11-19T17:23:50;5.22;;;2.40;;
43118;SDS011;28729;49.838;8.650;2023-11-19T17:27:51;9.18;;;2.17;;
43118;SDS011;28729;49.838;8.650;2023-11-19T17:31:53;7.60;;;1.92;;
43118;SDS011;28729;49.838;8.650;2023-11-19T17:35:55;5.38;;;1.05;;
43118;SDS011;28729;49.838;8.650;2023-11-19T17:39:57;6.17;;;1.30;;
43118;SDS011;28729;49.838;8.650;2023-11-19T17:43:59;6.23;;;1.73;;
43118;SDS011;28729;49.838;8.650;2023-11-19T17:48:02;7.43;;;1.85;;
43118;SDS011;28729;49.838;8.650;2023-11-19T17:52:03;7.35;;;1.63;;
43118;SDS011;28729;49.838;8.650;2023-11-19T17:56:06;7.30;;;1.60;;
43118;SDS011;28729;49.838;8.650;2023-11-19T18:00:08;5.80;;;1.40;;
43118;SDS011;28729;49.838;8.650;2023-11-19T18:04:17;7.63;;;1.73;;
43118;SDS011;28729;49.838;8.650;2023-11-19T18:08:20;9.55;;;1.42;;
43118;SDS011;28729;49.838;8.650;2023-11-19T18:12:24;6.82;;;1.15;;
43118;SDS011;28729;49.838;8.650;2023-11-19T18:16:26;8.20;;;2.28;;
43118;SDS011;28729;49.838;8.650;2023-11-19T18:20:32;7.47;;;2.15;;
43118;SDS011;28729;49.838;8.650;2023-11-19T18:24:34;9.13;;;2.10;;
43118;SDS011;28729;49.838;8.650;2023-11-19T18:28:37;9.48;;;2.40;;
43118;SDS011;28729;49.838;8.650;2023-11-19T18:32:40;11.27;;;2.63;;
43118;SDS011;28729;49.838;8.650;2023-11-19T18:36:43;13.18;;;2.78;;
43118;SDS011;28729;49.838;8.650;2023-11-19T18:40:45;7.97;;;2.90;;
43118;SDS011;28729;49.838;8.650;2023-11-19T18:48:51;8.40;;;2.15;;
43118;SDS011;28729;49.838;8.650;2023-11-19T18:56:56;7.75;;;2.65;;
43118;SDS011;28729;49.838;8.650;2023-11-19T19:00:58;10.50;;;2.97;;
43118;SDS011;28729;49.838;8.650;2023-11-19T19:05:01;8.23;;;3.17;;
43118;SDS011;28729;49.838;8.650;2023-11-19T19:09:04;8.90;;;3.00;;
43118;SDS011;28729;49.838;8.650;2023-11-19T19:13:06;13.63;;;3.20;;
43118;SDS011;28729;49.838;8.650;2023-11-19T19:17:09;10.15;;;2.60;;
43118;SDS011;28729;49.838;8.650;2023-11-19T19:21:12;6.85;;;2.50;;
43118;SDS011;28729;49.838;8.650;2023-11-19T19:25:14;9.35;;;2.80;;
43118;SDS011;28729;49.838;8.650;2023-11-19T19:29:17;6.97;;;2.80;;
43118;SDS011;28729;49.838;8.650;2023-11-19T19:37:26;5.80;;;2.60;;
43118;SDS011;28729;49.838;8.650;2023-11-19T19:41:28;10.25;;;3.20;;
43118;SDS011;28729;49.838;8.650;2023-11-19T19:45:30;8.70;;;2.00;;
43118;SDS011;28729;49.838;8.650;2023-11-19T19:49:33;7.65;;;2.03;;
43118;SDS011;28729;49.838;8.650;2023-11-19T19:53:35;12.30;;;3.30;;
43118;SDS011;28729;49.838;8.650;2023-11-19T19:57:42;10.98;;;2.45;;
43118;SDS011;28729;49.838;8.650;2023-11-19T20:01:45;8.60;;;2.55;;
43118;SDS011;28729;49.838;8.650;2023-11-19T20:05:47;11.00;;;2.00;;
43118;SDS011;28729;49.838;8.650;2023-11-19T20:09:50;11.95;;;2.15;;
43118;SDS011;28729;49.838;8.650;2023-11-19T20:13:57;8.35;;;1.73;;
43118;SDS011;28729;49.838;8.650;2023-11-19T20:18:00;10.93;;;2.17;;
43118;SDS011;28729;49.838;8.650;2023-11-19T20:22:04;11.20;;;2.30;;
43118;SDS011;28729;49.838;8.650;2023-11-19T20:26:06;8.80;;;2.13;;
43118;SDS011;28729;49.838;8.650;2023-11-19T20:30:08;12.55;;;2.60;;
43118;SDS011;28729;49.838;8.650;2023-11-19T20:34:10;9.75;;;2.03;;
43118;SDS011;28729;49.838;8.650;2023-11-19T20:38:15;10.55;;;1.98;;
43118;SDS011;28729;49.838;8.650;2023-11-19T20:42:18;11.18;;;1.90;;
43118;SDS011;28729;49.838;8.650;2023-11-19T20:46:23;11.13;;;2.38;;
43118;SDS011;28729;49.838;8.650;2023-11-19T20:50:30;12.20;;;2.15;;
43118;SDS011;28729;49.838;8.650;2023-11-19T20:54:32;9.73;;;1.67;;
43118;SDS011;28729;49.838;8.650;2023-11-19T20:58:37;13.85;;;3.53;;
43118;SDS011;28729;49.838;8.650;2023-11-19T21:02:39;16.00;;;2.30;;
43118;SDS011;28729;49.838;8.650;2023-11-19T21:06:42;13.27;;;2.80;;
43118;SDS011;28729;49.838;8.650;2023-11-19T21:10:48;10.43;;;2.75;;
43118;SDS011;28729;49.838;8.650;2023-11-19T21:14:53;13.20;;;2.88;;
43118;SDS011;28729;49.838;8.650;2023-11-19T21:18:55;10.13;;;2.05;;
43118;SDS011;28729;49.838;8.650;2023-11-19T21:22:59;9.88;;;2.20;;
43118;SDS011;28729;49.838;8.650;2023-11-19T21:31:02;11.13;;;2.65;;
43118;SDS011;28729;49.838;8.650;2023-11-19T21:35:08;12.30;;;2.45;;
43118;SDS011;28729;49.838;8.650;2023-11-19T21:43:15;11.25;;;2.00;;
43118;SDS011;28729;49.838;8.650;2023-11-19T21:47:21;8.07;;;1.83;;
43118;SDS011;28729;49.838;8.650;2023-11-19T21:51:23;8.43;;;2.15;;
43118;SDS011;28729;49.838;8.650;2023-11-19T21:59:27;11.20;;;1.77;;
43118;SDS011;28729;49.838;8.650;2023-11-19T22:03:29;14.53;;;2.50;;
43118;SDS011;28729;49.838;8.650;2023-11-19T22:07:31;13.43;;;2.10;;
43118;SDS011;28729;49.838;8.650;2023-11-19T22:11:33;8.07;;;2.07;;
43118;SDS011;28729;49.838;8.650;2023-11-19T22:15:38;7.78;;;1.92;;
43118;SDS011;28729;49.838;8.650;2023-11-19T22:19:41;12.35;;;2.60;;
43118;SDS011;28729;49.838;8.650;2023-11-19T22:23:42;8.45;;;1.92;;
43118;SDS011;28729;49.838;8.650;2023-11-19T22:27:50;15.00;;;2.50;;
43118;SDS011;28729;49.838;8.650;2023-11-19T22:35:55;13.25;;;2.38;;
43118;SDS011;28729;49.838;8.650;2023-11-19T22:40:00;8.55;;;1.83;;
43118;SDS011;28729;49.838;8.650;2023-11-19T22:48:06;17.85;;;2.85;;
43118;SDS011;28729;49.838;8.650;2023-11-19T22:52:07;13.40;;;2.70;;
43118;SDS011;28729;49.838;8.650;2023-11-19T22:56:12;10.25;;;2.30;;
43118;SDS011;28729;49.838;8.650;2023-11-19T23:00:18;10.98;;;2.00;;
43118;SDS011;28729;49.838;8.650;2023-11-19T23:04:31;9.03;;;1.80;;
43118;SDS011;28729;49.838;8.650;2023-11-19T23:08:34;11.68;;;2.20;;
43118;SDS011;28729;49.838;8.650;2023-11-19T23:12:38;15.02;;;2.60;;
43118;SDS011;28729;49.838;8.650;2023-11-19T23:16:41;15.18;;;2.70;;
43118;SDS011;28729;49.838;8.650;2023-11-19T23:20:44;9.43;;;1.85;;
43118;SDS011;28729;49.838;8.650;2023-11-19T23:24:47;9.48;;;1.75;;
43118;SDS011;28729;49.838;8.650;2023-11-19T23:28:49;10.37;;;2.20;;
43118;SDS011;28729;49.838;8.650;2023-11-19T23:32:55;10.65;;;2.08;;
43118;SDS011;28729;49.838;8.650;2023-11-19T23:36:57;10.73;;;1.83;;
43118;SDS011;28729;49.838;8.650;2023-11-19T23:45:02;15.68;;;2.85;;
43118;SDS011;28729;49.838;8.650;2023-11-19T23:49:03;9.57;;;1.98;;
43118;SDS011;28729;49.838;8.650;2023-11-19T23:53:09;9.68;;;2.28;;
43118;SDS011;28729;49.838;8.650;2023-11-19T23:57:14;11.07;;;2.10;;
